Latest Weather Observations for Nowra

IDN60801

Issued at 5:32 pm EDT Saturday 25 February 2017 (issued every 30 minutes, with the page automatically refreshed every 10 minutes)

About weather observations | Map of weather stations | Latest weather observations for NSW | Other Formats
Station Details ID: 068072 Name: NOWRA RAN AIR STATION AWS Lat: -34.95 Lon: 150.54 Height: 109.0 m
Data from the previous 72 hours. | See also: Recent months at Nowra
Date/Time
EDT
Temp
°C
App
Temp
°C
Dew
Point
°C
Rel
Hum
%
Delta-T
°C
Wind Press
QNH
hPa
Press
MSL
hPa
Rain since
9am
mm
Dir  Spd
km/h
Gust
km/h
Spd
kts
Gust
kts
25/05:30pm 20.4 18.2 14.5 69 3.4 S 19 28 10 15 1020.7 1020.3 0.0
25/05:00pm 20.5 19.4 14.2 67 3.7 SSE 13 19 7 10 1020.8 1020.4 0.0
25/04:30pm 20.3 18.9 13.3 64 4.0 S 13 19 7 10 1020.8 1020.4 0.0
25/04:00pm 20.2 18.7 13.2 64 4.0 S 13 17 7 9 1020.8 1020.4 0.0
25/03:30pm 19.9 16.6 12.9 64 4.0 S 22 32 12 17 1021.0 1020.6 0.0
25/03:00pm 20.0 16.3 12.7 63 4.1 S 24 32 13 17 1021.2 1020.8 0.0
25/02:30pm 19.7 15.9 12.5 63 4.1 S 24 35 13 19 1021.5 1021.1 0.0
25/02:00pm 20.5 17.3 13.2 63 4.2 S 22 30 12 16 1021.5 1021.1 0.0
25/01:30pm 20.5 17.5 12.7 61 4.4 SSE 20 30 11 16 1021.8 1021.5 0.0
25/01:00pm 20.6 18.2 12.8 61 4.4 S 17 22 9 12 1021.9 1021.6 0.0
25/12:30pm 19.9 17.4 12.2 61 4.3 S 17 22 9 12 1022.3 1022.0 0.0
25/12:00pm 18.9 15.7 11.9 64 3.9 S 20 28 11 15 1022.6 1022.3 0.0
25/11:30am 18.9 16.4 12.2 65 3.7 SSW 17 24 9 13 1023.0 1022.6 0.0
25/11:00am 18.1 15.1 11.9 67 3.4 S 19 30 10 16 1022.9 1022.5 0.0
25/10:30am 17.9 15.4 12.4 70 3.1 SSW 17 26 9 14 1022.9 1022.5 0.0
25/10:00am 17.5 15.2 13.0 75 2.5 SSW 17 22 9 12 1023.1 1022.7 0.0
25/09:30am 17.1 14.4 13.4 79 2.1 SSW 20 28 11 15 1022.9 1022.5 0.0
25/09:00am 17.1 14.9 13.2 78 2.2 SSW 17 22 9 12 1022.6 1022.3 -
25/08:30am 17.2 15.8 13.5 79 2.1 S 13 20 7 11 1022.4 1022.1 -
25/08:00am 16.8 15.4 13.5 81 1.9 S 13 19 7 10 1022.3 1022.0 -
25/07:30am 16.7 15.8 13.6 82 1.8 S 11 15 6 8 1021.9 1021.6 -
25/07:00am 16.2 14.6 14.0 87 1.2 SSW 15 24 8 13 1021.9 1021.6 -
25/06:30am 16.3 14.8 14.3 88 1.1 SSW 15 20 8 11 1021.5 1021.1 -
25/06:00am 16.4 15.1 14.9 91 0.9 SSW 15 19 8 10 1021.5 1021.1 -
25/05:34am 16.1 15.1 15.5 96 0.4 SSW 15 19 8 10 1021.4 1021.0 -
25/05:30am 16.1 15.1 15.5 96 0.4 SSW 15 19 8 10 1021.3 1020.9 -
25/05:00am 15.9 15.0 15.9 100 0.0 SSW 15 19 8 10 1021.1 1020.7 -
25/04:30am 16.0 14.7 15.8 99 0.1 S 17 22 9 12 1021.1 1020.7 -
25/04:16am 16.2 14.7 15.4 95 0.5 S 17 22 9 12 1021.1 1020.7 -
25/04:00am 16.3 14.3 15.5 95 0.5 S 20 28 11 15 1020.9 1020.5 -
25/03:30am 16.1 13.9 15.9 99 0.1 S 22 35 12 19 1020.9 1020.5 -
25/03:00am 16.2 14.4 16.0 99 0.1 SSW 20 32 11 17 1021.0 1020.6 0.4
25/02:30am 16.2 14.1 16.2 100 0.0 S 22 35 12 19 1021.0 1020.6 -
25/02:09am 16.4 14.4 16.4 100 0.0 S 22 30 12 16 1021.2 1020.8 -
25/02:00am 16.4 14.0 16.4 100 0.0 S 24 33 13 18 1021.3 1020.9 -
25/01:47am 16.4 14.4 16.4 100 0.0 S 22 30 12 16 1021.4 1021.0 -
25/01:34am 16.5 14.9 16.5 100 0.0 S 20 30 11 16 1021.4 1021.0 -
25/01:30am 16.6 15.0 16.6 100 0.0 S 20 30 11 16 1021.4 1021.0 -
25/01:26am 16.6 15.0 16.6 100 0.0 S 20 30 11 16 1021.5 1021.1 -
25/01:18am 16.7 15.2 16.7 100 0.0 S 20 30 11 16 1021.5 1021.1 -
25/01:00am 16.8 14.9 16.8 100 0.0 S 22 30 12 16 1021.4 1021.0 -
25/12:49am 16.9 15.1 16.9 100 0.0 S 22 32 12 17 1021.4 1021.0 -
25/12:44am 16.9 14.7 16.9 100 0.0 S 24 32 13 17 1021.5 1021.1 -
25/12:32am 17.0 14.5 17.0 100 0.0 S 26 35 14 19 1021.5 1021.1 -
25/12:30am 17.0 14.5 17.0 100 0.0 S 26 35 14 19 1021.5 1021.1 -
25/12:00am 17.1 14.2 17.1 100 0.0 S 28 39 15 21 1021.7 1021.4 -
 
Date/Time
EDT
Temp
°C
App
Temp
°C
Dew
Point
°C
Rel
Hum
%
Delta-T
°C
Wind Press
QNH
hPa
Press
MSL
hPa
Rain since
9am
mm
Dir  Spd
km/h
Gust
km/h
Spd
kts
Gust
kts
24/11:47pm 17.2 15.1 17.2 100 0.0 S 24 35 13 19 1021.8 1021.5 -
24/11:30pm 17.3 14.9 17.3 100 0.0 S 26 39 14 21 1021.8 1021.5 -
24/11:27pm 17.4 15.0 17.4 100 0.0 S 26 33 14 18 1021.9 1021.6 -
24/11:12pm 17.6 14.9 17.6 100 0.0 S 28 39 15 21 1021.9 1021.6 -
24/11:06pm 17.6 14.9 17.6 100 0.0 S 28 41 15 22 1021.8 1021.5 -
24/11:01pm 17.7 15.1 17.7 100 0.0 S 28 41 15 22 1021.8 1021.5 -
24/11:00pm 17.7 15.1 17.7 100 0.0 S 28 41 15 22 1021.8 1021.5 -
24/10:40pm 18.0 15.5 18.0 100 0.0 S 28 41 15 22 1021.9 1021.6 -
24/10:30pm 18.1 15.6 18.1 100 0.0 S 28 39 15 21 1021.9 1021.6 -
24/10:22pm 18.1 15.6 18.1 100 0.0 S 28 39 15 21 1021.9 1021.6 -
24/10:04pm 18.2 16.5 18.2 100 0.0 S 24 37 13 20 1021.9 1021.6 -
24/10:00pm 18.3 16.7 18.3 100 0.0 S 24 37 13 20 1021.9 1021.6 -
24/09:59pm 18.3 16.7 18.3 100 0.0 S 24 37 13 20 1021.9 1021.6 -
24/09:30pm 18.5 17.0 18.5 100 0.0 S 24 35 13 19 1021.7 1021.4 -
24/09:28pm 18.5 17.0 18.5 100 0.0 S 24 33 13 18 1021.7 1021.4 -
24/09:15pm 18.6 17.1 18.6 100 0.0 S 24 35 13 19 1021.5 1021.1 -
24/09:00pm 18.8 17.4 18.8 100 0.0 S 24 32 13 17 1021.3 1020.9 -
24/08:45pm 19.0 18.5 19.0 100 0.0 S 20 30 11 16 1021.2 1020.8 -
24/08:40pm 19.0 18.6 19.0 100 0.0 S 19 26 10 14 1021.1 1020.7 -
24/08:30pm 19.0 18.5 19.0 100 0.0 S 20 28 11 15 1021.0 1020.6 -
24/08:00pm 19.0 18.5 19.0 100 0.0 S 20 26 11 14 1020.6 1020.2 -
24/07:30pm 19.2 18.7 19.2 100 0.0 S 20 30 11 16 1020.0 1019.6 -
24/07:24pm 19.4 19.0 19.4 100 0.0 S 20 28 11 15 1020.0 1019.6 -
24/07:00pm 19.6 19.2 19.3 98 0.2 S 20 32 11 17 1019.8 1019.4 -
24/06:30pm 20.0 19.5 18.7 92 0.8 S 19 24 10 13 1019.6 1019.2 -
24/06:00pm 20.2 19.3 18.1 88 1.3 S 20 28 11 15 1019.6 1019.2 -
24/05:30pm 20.3 18.8 17.7 85 1.6 S 22 28 12 15 1019.4 1019.0 -
24/05:00pm 20.8 18.9 17.6 82 2.0 S 24 32 13 17 1019.1 1018.7 -
24/04:59pm 20.7 18.7 17.5 82 2.0 S 24 32 13 17 1019.1 1018.7 -
24/04:30pm 21.4 20.3 17.4 78 2.5 SSE 19 26 10 14 1019.0 1018.6 -
24/04:00pm 21.9 20.3 17.5 76 2.7 SSE 22 28 12 15 1019.0 1018.6 -
24/03:53pm 21.6 19.7 16.8 74 2.9 SSE 22 32 12 17 1019.0 1018.6 -
24/03:30pm 22.8 - 17.0 70 3.6 - - - - - 1018.9 1018.5 -
24/03:00pm 23.6 22.2 16.9 66 4.1 SSE 20 28 11 15 1018.9 1018.5 0.0
24/02:58pm 24.0 22.7 17.3 66 4.2 SSE 20 28 11 15 1019.0 1018.6 0.0
24/02:30pm 24.1 22.8 16.9 64 4.5 SSE 19 24 10 13 1019.2 1018.8 0.0
24/02:00pm 24.0 22.8 17.0 65 4.3 S 19 24 10 13 1019.6 1019.2 0.0
24/01:30pm 23.6 22.2 17.1 67 4.0 S 20 30 11 16 1020.0 1019.6 0.0
24/01:00pm 23.8 23.4 17.1 66 4.1 S 15 20 8 11 1020.5 1020.1 0.0
24/12:30pm 23.2 22.2 16.5 66 4.1 SSE 17 22 9 12 1021.0 1020.6 0.0
24/12:00pm 22.4 22.0 16.2 68 3.8 S 13 20 7 11 1021.4 1021.0 0.0
24/11:42am 22.5 22.6 16.5 69 3.7 S 11 20 6 11 1021.5 1021.1 0.0
24/11:30am 22.8 22.6 16.6 68 3.8 S 13 17 7 9 1021.6 1021.3 0.0
24/11:00am 22.0 21.8 16.7 72 3.2 SSW 13 17 7 9 1021.8 1021.5 0.0
24/10:30am 21.1 20.4 16.3 74 2.9 S 15 20 8 11 1022.0 1021.7 0.0
24/10:00am 21.2 19.7 16.4 74 2.9 SSW 19 26 10 14 1021.9 1021.6 0.0
24/09:30am 21.3 20.3 16.5 74 2.9 SSW 17 26 9 14 1021.6 1021.3 0.0
24/09:08am 21.3 19.8 16.7 75 2.8 SSW 20 28 11 15 1021.5 1021.1 0.0
24/09:00am 21.1 19.2 16.7 76 2.7 SSW 22 28 12 15 1021.5 1021.1 0.0
24/08:30am 20.5 19.6 16.9 80 2.2 SSW 17 24 9 13 1021.3 1020.9 0.0
24/08:00am 20.3 19.6 17.3 83 1.8 S 17 28 9 15 1021.0 1020.6 0.0
24/07:30am 20.1 19.8 17.3 84 1.7 SSW 15 24 8 13 1020.9 1020.5 0.0
24/07:00am 20.0 19.7 17.4 85 1.6 SSW 15 22 8 12 1020.5 1020.1 0.0
24/06:30am 20.1 19.9 17.7 86 1.5 SSW 15 22 8 12 1020.0 1019.6 0.0
24/06:00am 20.3 19.5 17.9 86 1.5 SSW 19 24 10 13 1019.7 1019.3 0.0
24/05:30am 20.4 19.6 18.0 86 1.5 SSW 19 30 10 16 1019.5 1019.1 0.0
24/05:00am 20.5 20.1 18.1 86 1.5 SSW 17 24 9 13 1019.2 1018.8 0.0
24/04:30am 20.6 20.3 18.2 86 1.5 SSW 17 22 9 12 1019.0 1018.6 0.0
24/04:00am 20.6 20.3 18.2 86 1.5 S 17 24 9 13 1019.0 1018.6 0.0
24/03:30am 20.6 20.7 18.4 87 1.4 S 15 20 8 11 1018.9 1018.5 0.0
24/03:00am 20.7 21.3 18.6 88 1.3 SSE 13 19 7 10 1018.7 1018.3 0.0
24/02:43am 20.7 21.8 18.8 89 1.2 SSE 11 15 6 8 1018.7 1018.3 0.0
24/02:30am 20.6 21.2 18.7 89 1.2 SSE 13 20 7 11 1018.6 1018.2 0.0
24/02:00am 20.9 21.6 18.8 88 1.3 SSE 13 20 7 11 1018.5 1018.1 0.0
24/01:30am 21.3 22.5 19.0 87 1.5 SSE 11 17 6 9 1018.6 1018.2 0.0
24/01:00am 21.4 22.2 19.1 87 1.5 SSE 13 17 7 9 1018.3 1017.9 0.0
24/12:30am 21.7 21.3 19.3 86 1.5 SSE 20 30 11 16 1018.0 1017.6 0.0
24/12:00am 21.6 20.9 18.6 83 1.9 SSE 20 28 11 15 1017.8 1017.4 0.0
 
Date/Time
EDT
Temp
°C
App
Temp
°C
Dew
Point
°C
Rel
Hum
%
Delta-T
°C
Wind Press
QNH
hPa
Press
MSL
hPa
Rain since
9am
mm
Dir  Spd
km/h
Gust
km/h
Spd
kts
Gust
kts
23/11:30pm 20.7 20.4 18.3 86 1.5 S 17 22 9 12 1017.4 1017.0 0.0
23/11:00pm 19.4 20.9 17.5 89 1.2 SW 6 11 3 6 1016.9 1016.5 0.0
23/10:30pm 20.8 23.8 18.4 86 1.5 CALM 0 9 0 5 1016.9 1016.5 0.0
23/10:00pm 20.5 22.2 18.1 86 1.5 WSW 6 7 3 4 1016.9 1016.5 0.0
23/09:30pm 20.9 21.9 17.7 82 2.0 SSW 9 15 5 8 1016.9 1016.5 0.0
23/09:00pm 21.8 23.1 18.4 81 2.1 S 9 9 5 5 1016.7 1016.3 0.0
23/08:30pm 22.1 23.1 17.7 76 2.7 S 9 11 5 6 1016.4 1016.0 0.0
23/08:00pm 23.3 24.3 17.7 71 3.5 SSE 9 11 5 6 1016.0 1015.6 0.0
23/07:30pm 24.5 25.4 17.5 65 4.4 SE 9 11 5 6 1015.7 1015.3 0.0
23/07:00pm 25.9 26.3 17.3 59 5.4 E 11 15 6 8 1015.3 1014.9 0.0
23/06:30pm 26.7 26.5 17.5 57 5.8 ESE 15 19 8 10 1015.1 1014.7 0.0
23/06:00pm 27.8 28.1 17.9 54 6.3 E 13 26 7 14 1014.8 1014.4 0.0
23/05:30pm 28.4 28.4 18.2 54 6.5 ESE 15 20 8 11 1014.8 1014.4 0.0
23/05:00pm 29.2 28.9 18.3 51 7.0 E 17 20 9 11 1014.7 1014.3 0.0
23/04:30pm 29.6 29.5 18.7 52 7.1 ESE 17 22 9 12 1014.8 1014.4 0.0
23/04:00pm 29.7 29.4 18.2 50 7.4 SE 17 20 9 11 1015.0 1014.6 0.0
23/03:30pm 30.7 30.6 18.8 49 7.7 E 17 20 9 11 1015.1 1014.7 0.0
23/03:00pm 30.1 29.5 18.5 49 7.5 E 19 24 10 13 1015.3 1014.9 0.0
23/02:30pm 30.1 28.9 18.5 49 7.5 E 22 26 12 14 1015.6 1015.2 0.0
23/02:00pm 30.1 29.3 18.5 49 7.5 E 20 28 11 15 1015.8 1015.4 0.0
23/01:30pm 30.9 31.7 19.9 52 7.3 ENE 15 20 8 11 1016.1 1015.7 0.0
23/01:00pm 30.3 29.8 17.7 46 8.1 ENE 17 22 9 12 1016.6 1016.2 0.0
23/12:30pm 30.9 30.8 17.9 45 8.4 NE 15 20 8 11 1016.8 1016.4 0.0
23/12:00pm 30.5 30.4 17.9 47 8.1 NNE 15 19 8 10 1017.1 1016.7 0.0
23/11:30am 29.5 29.4 17.0 47 7.9 N 13 17 7 9 1017.4 1017.0 0.0
23/11:00am 28.2 27.8 16.1 47 7.5 N 13 17 7 9 1017.7 1017.3 0.0
23/10:30am 27.4 28.2 16.4 51 6.8 NNW 7 11 4 6 1018.0 1017.6 0.0
23/10:00am 25.8 25.9 15.5 53 6.3 NNW 9 15 5 8 1018.1 1017.7 0.0
23/09:30am 24.9 24.6 15.5 56 5.7 NW 11 15 6 8 1018.1 1017.7 0.0
23/09:00am 23.7 23.7 16.2 63 4.6 NNW 11 15 6 8 1018.0 1017.6 0.0
23/08:30am 22.2 22.6 16.2 69 3.6 NW 9 11 5 6 1017.8 1017.4 0.0
23/08:00am 20.6 22.0 16.4 77 2.5 NNW 4 7 2 4 1017.6 1017.2 0.0
23/07:30am 18.6 19.4 17.3 92 0.8 NW 9 11 5 6 1017.5 1017.1 0.0
23/07:00am 16.3 18.2 15.7 96 0.4 CALM 0 0 0 0 1017.1 1016.7 0.0
23/06:30am 15.9 17.6 15.3 96 0.3 CALM 0 0 0 0 1017.0 1016.6 0.0
23/06:00am 15.8 16.9 14.5 92 0.7 NW 2 7 1 4 1016.8 1016.4 0.0
23/05:30am 16.6 16.7 14.4 87 1.3 NW 7 9 4 5 1016.7 1016.3 0.0
23/05:00am 17.4 17.7 17.1 98 0.2 WNW 11 13 6 7 1016.8 1016.4 0.0
23/04:30am 15.5 15.6 14.0 91 0.9 N 6 9 3 5 1016.7 1016.3 0.0
23/04:00am 16.9 18.8 15.8 93 0.6 CALM 0 0 0 0 1016.7 1016.3 0.0
23/03:30am 17.1 19.0 15.8 92 0.8 CALM 0 0 0 0 1016.8 1016.4 0.0
23/03:00am 17.7 19.5 15.5 87 1.3 CALM 0 0 0 0 1017.0 1016.6 0.0
23/02:30am 17.9 20.0 16.2 90 1.0 CALM 0 2 0 1 1017.2 1016.8 0.0
23/02:00am 18.0 20.0 16.0 88 1.2 CALM 0 6 0 3 1017.3 1016.9 0.0
23/01:30am 18.4 20.6 16.4 88 1.2 CALM 0 7 0 4 1017.5 1017.1 0.0
23/01:00am 18.6 19.3 15.5 82 1.8 NNW 6 9 3 5 1017.7 1017.3 0.0
23/12:30am 19.4 19.7 16.1 81 2.0 NW 9 11 5 6 1017.9 1017.5 0.0
23/12:00am 20.1 20.4 15.9 77 2.5 NNW 9 11 5 6 1018.1 1017.7 0.0
 
Date/Time
EDT
Temp
°C
App
Temp
°C
Dew
Point
°C
Rel
Hum
%
Delta-T
°C
Wind Press
QNH
hPa
Press
MSL
hPa
Rain since
9am
mm
Dir  Spd
km/h
Gust
km/h
Spd
kts
Gust
kts
22/11:30pm 20.9 21.3 16.3 75 2.8 N 9 11 5 6 1018.0 1017.6 0.0
22/11:00pm 19.5 21.6 16.2 81 2.0 CALM 0 0 0 0 1018.0 1017.6 0.0
22/10:30pm 19.3 21.3 16.0 81 2.0 CALM 0 0 0 0 1017.9 1017.5 0.0
22/10:00pm 21.0 23.0 16.0 73 3.0 CALM 0 0 0 0 1017.6 1017.2 0.0
22/09:30pm 21.8 23.8 15.9 69 3.6 CALM 0 0 0 0 1017.4 1017.0 0.0
22/09:00pm 22.1 21.7 16.1 69 3.6 NNE 13 19 7 10 1017.1 1016.7 0.0
22/08:30pm 22.2 21.8 16.2 69 3.6 NNE 13 19 7 10 1016.7 1016.3 0.0
22/08:00pm 22.2 21.7 15.8 67 3.9 NE 13 15 7 8 1016.2 1015.8 0.0
22/07:30pm 23.6 22.0 15.9 62 4.7 NE 19 22 10 12 1016.0 1015.6 0.0
22/07:00pm 24.7 22.9 15.9 58 5.4 NE 20 28 11 15 1015.9 1015.5 0.0
22/06:30pm 25.5 22.0 15.5 54 6.1 NE 28 33 15 18 1015.8 1015.4 0.0
22/06:00pm 26.2 22.6 16.2 54 6.2 NE 30 41 16 22 1015.8 1015.4 0.0

Other Formats:

Comma delimited format used in spreadsheet applications
http://www.bom.gov.au/fwo/IDN60801/IDN60801.94750.axf

JavaScript Object Notation format (JSON) in row-major order
http://www.bom.gov.au/fwo/IDN60801/IDN60801.94750.json